Time;durP1;ratioP1;P1;durP2;ratioP2;P2;SDS_P1;SDS_P2;PMS_P1;PMS_P2;Temp;Humidity;BMP_temperature;BMP_pressure;BME280_temperature;BME280_humidity;BME280_pressure;Samples;Min_cycle;Max_cycle;Signal;HPM_P1;HPM_P2
2022/05/18 00:02:08;;;;;;;0.00;0.00;;;20.40;70.10;;;;;;4147576;28;20054;-67
2022/05/18 00:04:33;;;;;;;0.00;0.00;;;20.30;69.90;;;;;;4133933;28;20076;-71
2022/05/18 00:06:58;;;;;;;0.00;0.00;;;20.30;69.90;;;;;;4148176;28;20060;-68
2022/05/18 00:09:25;;;;;;;0.00;0.00;;;20.30;70.10;;;;;;4148254;28;20045;-68
2022/05/18 00:11:51;;;;;;;0.00;0.00;;;20.30;70.30;;;;;;4147411;28;20118;-72
2022/05/18 00:14:22;;;;;;;0.00;0.00;;;20.30;70.40;;;;;;4147490;28;20119;-69
2022/05/18 00:16:49;;;;;;;0.00;0.00;;;20.20;70.70;;;;;;4147457;28;20042;-69
2022/05/18 00:19:14;;;;;;;0.00;0.00;;;20.20;70.90;;;;;;4147292;28;20045;-70
2022/05/18 00:21:38;;;;;;;0.00;0.00;;;20.20;71.00;;;;;;4133905;28;20053;-69
2022/05/18 00:24:06;;;;;;;0.00;0.00;;;20.20;71.00;;;;;;4147307;28;20081;-68
2022/05/18 00:26:28;;;;;;;0.00;0.00;;;20.20;70.90;;;;;;4147172;28;20345;-69
2022/05/18 00:28:52;;;;;;;0.00;0.00;;;20.10;70.80;;;;;;4148166;28;20066;-66
2022/05/18 00:31:19;;;;;;;0.00;0.00;;;20.00;71.00;;;;;;4133787;28;20053;-69
2022/05/18 00:33:57;;;;;;;0.00;0.00;;;20.00;71.10;;;;;;4147933;28;20050;-69
2022/05/18 00:36:20;;;;;;;0.00;0.00;;;20.00;71.20;;;;;;4120302;28;20535;-67
2022/05/18 00:38:48;;;;;;;0.00;0.00;;;20.00;71.10;;;;;;4147102;28;20491;-69
2022/05/18 00:41:19;;;;;;;0.00;0.00;;;20.00;71.10;;;;;;4147123;28;20504;-69
2022/05/18 00:43:58;;;;;;;0.00;0.00;;;19.90;71.00;;;;;;4147118;28;20042;-67
2022/05/18 00:46:27;;;;;;;0.00;0.00;;;19.90;71.30;;;;;;4134102;28;20062;-68
2022/05/18 00:48:53;;;;;;;0.00;0.00;;;19.90;71.50;;;;;;4147743;28;20054;-68
2022/05/18 00:51:26;;;;;;;0.00;0.00;;;19.90;71.40;;;;;;4145689;28;20073;-69
2022/05/18 00:54:09;;;;;;;0.00;0.00;;;19.90;71.60;;;;;;4135416;28;20096;-68
2022/05/18 00:56:42;;;;;;;0.00;0.00;;;19.80;71.50;;;;;;4147657;28;20060;-69
2022/05/18 00:59:12;;;;;;;0.00;0.00;;;19.80;71.60;;;;;;4146867;28;20400;-68
2022/05/18 01:01:40;;;;;;;0.00;0.00;;;19.80;71.70;;;;;;4146661;28;20041;-71
2022/05/18 01:04:09;;;;;;;0.00;0.00;;;19.80;71.90;;;;;;4120000;28;20392;-70
2022/05/18 01:06:38;;;;;;;0.00;0.00;;;19.80;72.20;;;;;;4146755;28;20093;-68
2022/05/18 01:09:34;;;;;;;0.00;0.00;;;19.80;72.20;;;;;;4146808;28;20121;-70
2022/05/18 01:12:14;;;;;;;0.00;0.00;;;19.70;72.20;;;;;;4122554;28;20065;-67
2022/05/18 01:14:55;;;;;;;0.00;0.00;;;19.70;72.40;;;;;;4146539;28;20096;-70
2022/05/18 01:17:31;;;;;;;0.00;0.00;;;19.60;72.70;;;;;;4197901;28;20079;-68
2022/05/18 01:20:16;;;;;;;0.00;0.00;;;19.60;72.60;;;;;;4146546;28;20128;-68
2022/05/18 01:23:05;;;;;;;0.00;0.00;;;19.60;72.70;;;;;;4147388;28;20037;-68
2022/05/18 01:25:58;;;;;;;0.00;0.00;;;19.70;72.70;;;;;;4146489;28;20050;-67
2022/05/18 01:28:32;;;;;;;0.00;0.00;;;19.60;72.80;;;;;;4146590;28;20057;-69
2022/05/18 01:30:55;;;;;;;0.00;0.00;;;19.50;73.10;;;;;;4146290;28;20068;-66
2022/05/18 01:33:21;;;;;;;0.00;0.00;;;19.50;73.20;;;;;;4132990;28;20128;-68
2022/05/18 01:35:57;;;;;;;0.00;0.00;;;19.60;73.50;;;;;;4146366;28;20093;-69
2022/05/18 01:38:24;;;;;;;0.00;0.00;;;19.50;73.70;;;;;;4147071;28;20098;-68
2022/05/18 01:40:59;;;;;;;0.00;0.00;;;19.50;73.90;;;;;;4120599;28;20057;-67
2022/05/18 01:43:59;;;;;;;0.00;0.00;;;19.50;74.10;;;;;;4134289;28;20054;-69
2022/05/18 01:46:22;;;;;;;0.00;0.00;;;19.40;74.50;;;;;;4119351;28;20054;-70
2022/05/18 01:48:50;;;;;;;0.00;0.00;;;19.40;74.50;;;;;;4119215;28;20060;-68
2022/05/18 01:51:24;;;;;;;0.00;0.00;;;19.40;74.70;;;;;;4145905;28;20093;-67
2022/05/18 01:53:46;;;;;;;0.00;0.00;;;19.40;74.70;;;;;;4132450;28;20047;-68
2022/05/18 01:56:08;;;;;;;0.00;0.00;;;19.40;74.80;;;;;;4173558;28;20049;-70
2022/05/18 01:58:35;;;;;;;0.00;0.00;;;19.40;74.80;;;;;;4132557;28;20516;-70
2022/05/18 02:00:57;;;;;;;0.00;0.00;;;19.30;74.90;;;;;;4173727;28;20097;-67
2022/05/18 02:03:27;;;;;;;0.00;0.00;;;19.40;75.20;;;;;;4132341;28;20082;-69
2022/05/18 02:05:55;;;;;;;0.00;0.00;;;19.30;75.20;;;;;;4132404;28;20061;-71
2022/05/18 02:08:23;;;;;;;0.00;0.00;;;19.30;75.20;;;;;;4132284;28;20057;-67
2022/05/18 02:10:48;;;;;;;0.00;0.00;;;19.30;75.30;;;;;;4146294;28;20371;-67
2022/05/18 02:13:10;;;;;;;0.00;0.00;;;19.30;75.50;;;;;;4173203;28;20131;-68
2022/05/18 02:15:37;;;;;;;0.00;0.00;;;19.30;75.80;;;;;;4132336;28;20080;-70
2022/05/18 02:18:05;;;;;;;0.00;0.00;;;19.30;76.30;;;;;;4173349;28;20113;-68
2022/05/18 02:20:27;;;;;;;0.00;0.00;;;19.30;76.60;;;;;;4145714;28;20095;-69
2022/05/18 02:22:51;;;;;;;0.00;0.00;;;19.20;76.80;;;;;;4146271;28;20053;-69
2022/05/18 02:25:16;;;;;;;0.00;0.00;;;19.20;77.10;;;;;;4132385;28;20120;-70
2022/05/18 02:27:38;;;;;;;0.00;0.00;;;19.20;77.70;;;;;;4132170;28;20111;-67
2022/05/18 02:30:07;;;;;;;0.00;0.00;;;19.10;78.00;;;;;;4132353;28;20468;-69
2022/05/18 02:32:29;;;;;;;0.00;0.00;;;19.20;78.10;;;;;;4132358;28;20057;-67
2022/05/18 02:34:54;;;;;;;0.00;0.00;;;19.20;78.40;;;;;;4145492;28;20129;-68
2022/05/18 02:37:18;;;;;;;0.00;0.00;;;19.20;78.40;;;;;;4159587;28;20060;-68
2022/05/18 02:39:41;;;;;;;0.00;0.00;;;19.10;78.40;;;;;;4132062;28;20038;-69
2022/05/18 02:42:03;;;;;;;0.00;0.00;;;19.10;78.20;;;;;;4145620;28;20050;-69
2022/05/18 02:44:25;;;;;;;0.00;0.00;;;19.20;78.10;;;;;;4173318;28;20049;-67
2022/05/18 02:46:47;;;;;;;0.00;0.00;;;19.20;78.10;;;;;;4132398;28;20082;-69
2022/05/18 02:49:10;;;;;;;0.00;0.00;;;19.10;78.00;;;;;;4145742;28;20736;-68
2022/05/18 02:51:32;;;;;;;0.00;0.00;;;19.10;78.20;;;;;;4145551;28;20368;-69
2022/05/18 02:53:55;;;;;;;0.00;0.00;;;19.10;78.20;;;;;;4145520;28;20151;-68
2022/05/18 02:56:25;;;;;;;0.00;0.00;;;19.00;78.10;;;;;;4131579;28;20046;-68
2022/05/18 02:58:52;;;;;;;0.00;0.00;;;19.00;77.90;;;;;;4145458;28;20060;-67
2022/05/18 03:01:24;;;;;;;0.00;0.00;;;19.00;77.80;;;;;;4131875;28;20145;-69
2022/05/18 03:03:50;;;;;;;0.00;0.00;;;19.00;77.60;;;;;;4132110;28;20445;-69
2022/05/18 03:06:14;;;;;;;0.00;0.00;;;19.00;77.40;;;;;;4173198;28;20339;-67
2022/05/18 03:08:41;;;;;;;0.00;0.00;;;18.90;76.90;;;;;;4118284;28;20057;-69
2022/05/18 03:11:03;;;;;;;0.00;0.00;;;18.90;76.90;;;;;;4145649;28;20046;-67
2022/05/18 03:13:28;;;;;;;0.00;0.00;;;18.90;76.80;;;;;;4131667;28;20101;-67
2022/05/18 03:15:53;;;;;;;0.00;0.00;;;18.90;76.50;;;;;;4131747;28;20481;-69
2022/05/18 03:18:15;;;;;;;0.00;0.00;;;18.80;76.50;;;;;;4172506;27;20095;-68
2022/05/18 03:23:33;;;;;;;0.00;0.00;;;18.80;76.40;;;;;;4133000;28;20072;-69
2022/05/18 03:25:55;;;;;;;0.00;0.00;;;18.80;76.40;;;;;;4134637;28;20093;-67
2022/05/18 03:28:19;;;;;;;0.00;0.00;;;18.80;76.40;;;;;;4148269;28;20042;-67
2022/05/18 03:30:44;;;;;;;0.00;0.00;;;18.80;76.40;;;;;;4135124;28;20050;-68
2022/05/18 03:33:10;;;;;;;0.00;0.00;;;18.80;76.40;;;;;;4135188;28;20135;-68
2022/05/18 03:35:35;;;;;;;0.00;0.00;;;18.80;76.50;;;;;;4134639;28;20054;-68
2022/05/18 03:37:57;;;;;;;0.00;0.00;;;18.80;76.60;;;;;;4147944;28;20048;-70
2022/05/18 03:40:21;;;;;;;0.00;0.00;;;18.70;76.70;;;;;;4120579;28;20050;-68
2022/05/18 03:42:44;;;;;;;0.00;0.00;;;18.70;77.10;;;;;;4134379;28;20065;-68
2022/05/18 03:45:09;;;;;;;0.00;0.00;;;18.70;77.40;;;;;;4148117;28;20452;-72
2022/05/18 03:47:33;;;;;;;0.00;0.00;;;18.70;77.60;;;;;;4134681;28;20097;-72
2022/05/18 03:49:55;;;;;;;0.00;0.00;;;18.60;77.80;;;;;;4134320;28;20468;-69
2022/05/18 03:52:19;;;;;;;0.00;0.00;;;18.60;78.10;;;;;;4148417;28;20079;-68
2022/05/18 03:54:46;;;;;;;0.00;0.00;;;18.60;78.30;;;;;;4148406;28;20133;-70
2022/05/18 03:57:10;;;;;;;0.00;0.00;;;18.60;78.40;;;;;;4134668;28;20050;-68
2022/05/18 03:59:32;;;;;;;0.00;0.00;;;18.60;78.40;;;;;;4134506;28;20046;-66
2022/05/18 04:01:54;;;;;;;0.00;0.00;;;18.50;78.40;;;;;;4148410;28;20057;-71
2022/05/18 04:04:20;;;;;;;0.00;0.00;;;18.50;78.50;;;;;;4134581;28;20479;-68
2022/05/18 04:06:42;;;;;;;0.00;0.00;;;18.50;78.60;;;;;;4134739;28;20083;-70
2022/05/18 04:09:07;;;;;;;0.00;0.00;;;18.50;78.70;;;;;;4148368;28;20145;-68
2022/05/18 04:11:29;;;;;;;0.00;0.00;;;18.50;78.90;;;;;;4148128;28;20050;-68
2022/05/18 04:13:55;;;;;;;0.00;0.00;;;18.50;79.00;;;;;;4148179;28;20053;-70
2022/05/18 04:16:20;;;;;;;0.00;0.00;;;18.50;79.20;;;;;;4134265;28;20100;-70
2022/05/18 04:18:42;;;;;;;0.00;0.00;;;18.50;79.30;;;;;;4134409;28;20038;-70
2022/05/18 04:21:06;;;;;;;0.00;0.00;;;18.50;79.50;;;;;;4147713;28;20038;-67
2022/05/18 04:23:30;;;;;;;0.00;0.00;;;18.50;79.50;;;;;;4134677;28;20057;-68
2022/05/18 04:25:57;;;;;;;0.00;0.00;;;18.60;79.50;;;;;;4134307;28;20475;-68
2022/05/18 04:28:22;;;;;;;0.00;0.00;;;18.50;79.60;;;;;;4175428;28;20397;-66
2022/05/18 04:30:48;;;;;;;0.00;0.00;;;18.50;79.70;;;;;;4134155;28;20066;-68
2022/05/18 04:33:18;;;;;;;0.00;0.00;;;18.50;79.80;;;;;;4120600;28;20108;-70
2022/05/18 04:35:45;;;;;;;0.00;0.00;;;18.40;80.10;;;;;;4119979;28;20042;-68
2022/05/18 04:38:09;;;;;;;0.00;0.00;;;18.40;80.40;;;;;;4147867;28;20087;-68
2022/05/18 04:40:34;;;;;;;0.00;0.00;;;18.40;80.40;;;;;;4134108;28;20080;-70
2022/05/18 04:42:59;;;;;;;0.00;0.00;;;18.40;80.20;;;;;;4147713;28;20099;-68
2022/05/18 04:45:22;;;;;;;0.00;0.00;;;18.40;80.30;;;;;;4133966;28;20042;-69
2022/05/18 04:47:50;;;;;;;0.00;0.00;;;18.50;80.20;;;;;;4108041;28;20046;-68
2022/05/18 04:50:12;;;;;;;0.00;0.00;;;18.60;80.30;;;;;;4134114;28;20160;-68
2022/05/18 04:52:34;;;;;;;0.00;0.00;;;18.60;80.50;;;;;;4133958;28;20051;-69
2022/05/18 04:54:56;;;;;;;0.00;0.00;;;18.60;80.60;;;;;;4120658;28;20054;-68
2022/05/18 04:57:19;;;;;;;0.00;0.00;;;18.60;80.60;;;;;;4133725;28;20042;-69
2022/05/18 04:59:44;;;;;;;0.00;0.00;;;18.70;80.50;;;;;;4133714;28;20133;-70
2022/05/18 05:02:09;;;;;;;0.00;0.00;;;18.80;80.70;;;;;;4147386;28;20080;-68
2022/05/18 05:04:32;;;;;;;0.00;0.00;;;18.80;80.70;;;;;;4133483;28;20137;-69
2022/05/18 05:07:03;;;;;;;0.00;0.00;;;18.90;80.80;;;;;;4147142;28;20052;-70
2022/05/18 05:09:26;;;;;;;0.00;0.00;;;19.00;81.00;;;;;;4133924;28;20128;-69
2022/05/18 05:11:48;;;;;;;0.00;0.00;;;19.00;81.00;;;;;;4133847;28;20100;-70
2022/05/18 05:14:13;;;;;;;0.00;0.00;;;19.10;80.70;;;;;;4120786;28;20091;-69
2022/05/18 05:16:35;;;;;;;0.00;0.00;;;19.10;80.40;;;;;;4133390;28;20043;-70
2022/05/18 05:18:57;;;;;;;0.00;0.00;;;19.10;80.50;;;;;;4147307;28;20099;-70
2022/05/18 05:21:24;;;;;;;0.00;0.00;;;19.20;80.70;;;;;;4133538;28;20062;-70
2022/05/18 05:23:48;;;;;;;0.00;0.00;;;19.40;81.00;;;;;;4147123;28;20399;-70
2022/05/18 05:26:13;;;;;;;0.00;0.00;;;19.40;81.10;;;;;;4147254;28;20093;-68
2022/05/18 05:28:37;;;;;;;0.00;0.00;;;19.50;81.40;;;;;;4147034;28;20125;-72
2022/05/18 05:31:09;;;;;;;0.00;0.00;;;19.60;81.70;;;;;;4119793;28;20042;-70
2022/05/18 05:33:32;;;;;;;0.00;0.00;;;19.70;81.90;;;;;;4146788;28;20091;-70
2022/05/18 05:35:57;;;;;;;0.00;0.00;;;19.80;82.30;;;;;;4146940;28;20061;-71
2022/05/18 05:38:21;;;;;;;0.00;0.00;;;19.90;82.50;;;;;;4146729;28;20077;-69
2022/05/18 05:40:46;;;;;;;0.00;0.00;;;19.90;82.40;;;;;;4133141;28;20068;-71
2022/05/18 05:43:14;;;;;;;0.00;0.00;;;20.00;82.60;;;;;;4174458;28;20098;-72
2022/05/18 05:45:37;;;;;;;0.00;0.00;;;20.10;82.40;;;;;;4106889;28;20493;-66
2022/05/18 05:48:04;;;;;;;0.00;0.00;;;20.10;81.90;;;;;;4133136;28;20125;-67
2022/05/18 05:50:26;;;;;;;0.00;0.00;;;20.00;81.90;;;;;;4133325;28;20067;-67
2022/05/18 05:52:48;;;;;;;0.00;0.00;;;20.00;82.20;;;;;;4133125;28;20140;-65
2022/05/18 05:55:10;;;;;;;0.00;0.00;;;20.00;82.20;;;;;;4133343;28;20060;-67
2022/05/18 05:57:32;;;;;;;0.00;0.00;;;19.90;82.10;;;;;;4133477;28;20055;-65
2022/05/18 05:59:54;;;;;;;0.00;0.00;;;20.00;82.40;;;;;;4146766;28;20052;-67
2022/05/18 06:02:19;;;;;;;0.00;0.00;;;20.10;82.00;;;;;;4133342;28;20052;-66
2022/05/18 06:04:46;;;;;;;0.00;0.00;;;20.20;81.50;;;;;;4132985;28;20038;-67
2022/05/18 06:07:12;;;;;;;0.00;0.00;;;20.30;81.60;;;;;;4119902;28;20054;-68
2022/05/18 06:09:36;;;;;;;0.00;0.00;;;20.40;81.00;;;;;;4146682;28;20057;-66
2022/05/18 06:12:03;;;;;;;0.00;0.00;;;20.50;80.70;;;;;;4146489;28;20124;-66
2022/05/18 06:14:25;;;;;;;0.00;0.00;;;20.60;81.00;;;;;;4146758;28;20111;-66
2022/05/18 06:16:50;;;;;;;0.00;0.00;;;20.80;80.70;;;;;;4133341;28;20046;-67
2022/05/18 06:19:12;;;;;;;0.00;0.00;;;20.80;79.80;;;;;;4133025;28;20041;-66
2022/05/18 06:21:37;;;;;;;0.00;0.00;;;20.80;79.80;;;;;;4146388;28;20438;-66
2022/05/18 06:24:01;;;;;;;0.00;0.00;;;20.90;80.20;;;;;;4132806;28;20050;-67
2022/05/18 06:26:25;;;;;;;0.00;0.00;;;20.90;79.30;;;;;;4146333;28;20053;-67
2022/05/18 06:28:52;;;;;;;0.00;0.00;;;20.90;79.00;;;;;;4132972;28;20049;-66
2022/05/18 06:31:19;;;;;;;0.00;0.00;;;20.90;79.20;;;;;;4133313;28;20042;-66
2022/05/18 06:33:43;;;;;;;0.00;0.00;;;21.10;78.50;;;;;;4132683;28;20093;-66
2022/05/18 06:36:05;;;;;;;0.00;0.00;;;21.20;78.10;;;;;;4132712;28;20120;-66
2022/05/18 06:38:29;;;;;;;0.00;0.00;;;21.20;77.90;;;;;;4146291;28;20053;-66
2022/05/18 06:43:38;;;;;;;0.00;0.00;;;21.40;77.70;;;;;;4132331;28;20141;-67
2022/05/18 06:46:05;;;;;;;0.00;0.00;;;21.50;77.40;;;;;;4146420;28;20519;-66
2022/05/18 06:48:28;;;;;;;0.00;0.00;;;21.60;77.60;;;;;;4146549;28;20094;-66
2022/05/18 06:51:08;;;;;;;0.00;0.00;;;21.70;77.10;;;;;;4146864;28;20759;-67
2022/05/18 06:53:30;;;;;;;0.00;0.00;;;21.90;77.50;;;;;;4146395;28;20046;-66
2022/05/18 06:55:55;;;;;;;0.00;0.00;;;21.60;77.00;;;;;;4132766;28;20054;-66
2022/05/18 06:58:25;;;;;;;0.00;0.00;;;21.20;78.20;;;;;;4146103;28;20538;-66
2022/05/18 07:00:50;;;;;;;0.00;0.00;;;21.00;78.40;;;;;;4145948;28;20103;-66
2022/05/18 07:03:12;;;;;;;0.00;0.00;;;20.90;78.00;;;;;;4132580;28;20050;-67
2022/05/18 07:05:34;;;;;;;0.00;0.00;;;21.00;78.30;;;;;;4119043;28;20046;-66
2022/05/18 07:07:57;;;;;;;0.00;0.00;;;21.20;78.00;;;;;;4146383;28;20408;-66
2022/05/18 07:10:19;;;;;;;0.00;0.00;;;21.30;78.10;;;;;;4132403;28;20054;-66
2022/05/18 07:12:46;;;;;;;0.00;0.00;;;21.40;77.90;;;;;;4146045;28;20050;-66
2022/05/18 07:15:11;;;;;;;0.00;0.00;;;21.50;78.10;;;;;;4132312;28;20082;-66
2022/05/18 07:17:36;;;;;;;0.00;0.00;;;21.70;77.00;;;;;;4156811;28;20122;-67
2022/05/18 07:20:22;;;;;;;0.00;0.00;;;21.50;76.90;;;;;;4165466;28;20071;-66
2022/05/18 07:22:45;;;;;;;0.00;0.00;;;21.70;77.40;;;;;;4206224;28;20123;-66
2022/05/18 07:25:12;;;;;;;0.00;0.00;;;21.50;77.20;;;;;;4203090;28;20129;-66
2022/05/18 07:27:34;;;;;;;0.00;0.00;;;21.30;77.50;;;;;;4129762;28;20046;-66
2022/05/18 07:29:56;;;;;;;0.00;0.00;;;21.40;78.00;;;;;;4102851;28;20112;-66
2022/05/18 07:32:18;;;;;;;0.00;0.00;;;21.40;78.00;;;;;;4116213;28;20435;-66
2022/05/18 07:34:44;;;;;;;0.00;0.00;;;21.50;78.30;;;;;;4138831;28;20061;-66
2022/05/18 07:37:07;;;;;;;0.00;0.00;;;21.60;78.40;;;;;;4148252;28;20053;-66
2022/05/18 07:39:29;;;;;;;0.00;0.00;;;21.80;78.20;;;;;;4121202;28;20057;-67
2022/05/18 07:41:51;;;;;;;0.00;0.00;;;22.00;77.70;;;;;;4133739;28;20097;-66
2022/05/18 07:44:19;;;;;;;0.00;0.00;;;22.10;76.50;;;;;;4134870;28;20046;-66
2022/05/18 07:46:44;;;;;;;0.00;0.00;;;22.10;76.60;;;;;;4134414;28;20065;-67
2022/05/18 07:49:08;;;;;;;0.00;0.00;;;21.80;76.70;;;;;;4148420;28;20106;-66
2022/05/18 07:51:33;;;;;;;0.00;0.00;;;21.60;77.40;;;;;;4121041;28;20116;-67
2022/05/18 07:53:55;;;;;;;0.00;0.00;;;21.40;78.00;;;;;;4134840;28;20682;-65
2022/05/18 07:56:17;;;;;;;0.00;0.00;;;21.40;78.40;;;;;;4148149;28;20054;-67
2022/05/18 07:58:39;;;;;;;0.00;0.00;;;21.40;78.30;;;;;;4161951;28;20062;-67
2022/05/18 08:01:07;;;;;;;0.00;0.00;;;21.60;77.90;;;;;;4134313;28;20124;-67
2022/05/18 08:03:31;;;;;;;0.00;0.00;;;21.50;76.80;;;;;;4148402;28;20049;-67
2022/05/18 08:05:53;;;;;;;0.00;0.00;;;21.60;77.20;;;;;;4147931;28;20053;-66
2022/05/18 08:08:20;;;;;;;0.00;0.00;;;21.70;77.00;;;;;;4148180;28;20103;-66
2022/05/18 08:16:06;;;;;;;0.00;0.00;;;22.10;77.20;;;;;;4126074;28;20416;-66
2022/05/18 08:18:31;;;;;;;0.00;0.00;;;22.20;76.20;;;;;;4137135;28;20297;-66
2022/05/18 08:20:53;;;;;;;0.00;0.00;;;22.20;76.60;;;;;;4150346;28;20034;-66
2022/05/18 08:23:15;;;;;;;0.00;0.00;;;22.00;76.00;;;;;;4150780;28;20060;-65
2022/05/18 08:25:40;;;;;;;0.00;0.00;;;22.10;75.30;;;;;;4137110;28;20080;-66
2022/05/18 08:28:08;;;;;;;0.00;0.00;;;22.00;75.00;;;;;;4150313;28;20103;-66
2022/05/18 08:30:32;;;;;;;0.00;0.00;;;22.00;75.90;;;;;;4150711;28;20095;-66
2022/05/18 08:33:02;;;;;;;0.00;0.00;;;22.10;76.10;;;;;;4164078;28;20045;-65
2022/05/18 08:35:29;;;;;;;0.00;0.00;;;22.20;76.20;;;;;;4137352;28;20158;-66
2022/05/18 08:37:51;;;;;;;0.00;0.00;;;22.30;75.40;;;;;;4208443;28;20409;-66
2022/05/18 08:40:38;;;;;;;0.00;0.00;;;22.30;75.40;;;;;;4137319;28;20528;-66
2022/05/18 08:43:08;;;;;;;0.00;0.00;;;22.30;75.90;;;;;;4136971;28;20103;-66
2022/05/18 08:45:34;;;;;;;0.00;0.00;;;22.50;75.20;;;;;;4150837;28;20045;-66
2022/05/18 08:48:06;;;;;;;0.00;0.00;;;22.60;75.00;;;;;;4150981;28;20391;-65
2022/05/18 08:50:30;;;;;;;;;;;22.70;74.00;;;;;;4150971;28;20513;-66
2022/05/18 08:53:11;;;;;;;0.00;0.00;;;22.70;74.10;;;;;;4150958;28;20221;-66
2022/05/18 08:55:56;;;;;;;0.00;0.00;;;22.80;73.80;;;;;;4137035;28;20052;-67
2022/05/18 08:58:22;;;;;;;0.00;0.00;;;23.00;73.10;;;;;;4164157;28;20516;-66
2022/05/18 09:00:48;;;;;;;0.00;0.00;;;23.10;73.40;;;;;;4123304;28;20046;-63
2022/05/18 09:03:22;;;;;;;0.00;0.00;;;23.30;72.70;;;;;;4137255;28;20479;-66
2022/05/18 09:06:01;;;;;;;0.00;0.00;;;23.20;71.70;;;;;;4137206;28;20574;-67
2022/05/18 09:08:36;;;;;;;0.00;0.00;;;23.10;72.50;;;;;;4137043;28;20087;-67
2022/05/18 09:11:08;;;;;;;0.00;0.00;;;23.20;73.20;;;;;;4137060;28;20046;-66
2022/05/18 09:13:34;;;;;;;0.00;0.00;;;23.40;72.70;;;;;;4150798;28;20045;-67
2022/05/18 09:16:10;;;;;;;0.00;0.00;;;23.50;72.00;;;;;;4137358;28;20342;-65
2022/05/18 09:18:35;;;;;;;0.00;0.00;;;23.70;71.70;;;;;;4123225;28;20074;-67
2022/05/18 09:21:19;;;;;;;0.00;0.00;;;24.00;71.90;;;;;;4149304;28;20088;-67
2022/05/18 09:23:47;;;;;;;0.00;0.00;;;24.20;70.80;;;;;;4163667;28;20033;-67
2022/05/18 09:26:34;;;;;;;0.00;0.00;;;24.30;71.10;;;;;;4136267;28;20046;-66
2022/05/18 09:29:12;;;;;;;0.00;0.00;;;24.40;69.80;;;;;;4136356;28;20141;-66
2022/05/18 09:31:43;;;;;;;0.00;0.00;;;24.30;69.30;;;;;;4136075;28;20058;-67
2022/05/18 09:34:24;;;;;;;0.00;0.00;;;24.30;68.20;;;;;;4149662;28;20144;-66
2022/05/18 09:37:16;;;;;;;0.00;0.00;;;24.20;67.00;;;;;;4149641;28;20060;-66
2022/05/18 09:39:49;;;;;;;0.00;0.00;;;24.20;68.90;;;;;;4136040;28;20082;-66
2022/05/18 09:42:16;;;;;;;0.00;0.00;;;24.40;68.80;;;;;;4136039;28;20050;-65
2022/05/18 09:45:04;;;;;;;0.00;0.00;;;24.30;69.10;;;;;;4149911;28;20289;-66
2022/05/18 09:47:29;;;;;;;0.00;0.00;;;24.40;68.60;;;;;;4175039;28;20045;-66
2022/05/18 09:49:55;;;;;;;0.00;0.00;;;24.50;68.70;;;;;;4218376;28;20432;-66
2022/05/18 09:52:21;;;;;;;0.00;0.00;;;24.60;68.60;;;;;;4203995;28;20403;-66
2022/05/18 09:54:43;;;;;;;0.00;0.00;;;24.70;67.90;;;;;;4179943;28;20049;-66
2022/05/18 09:57:23;;;;;;;0.00;0.00;;;24.80;66.70;;;;;;4116852;28;20089;-68
2022/05/18 09:59:52;;;;;;;0.00;0.00;;;25.00;66.00;;;;;;4144470;28;20423;-67
2022/05/18 10:07:53;;;;;;;0.00;0.00;;;24.90;67.00;;;;;;4124148;28;20054;-66
2022/05/18 10:10:21;;;;;;;0.00;0.00;;;25.00;66.20;;;;;;4135767;28;20042;-68
2022/05/18 10:12:49;;;;;;;0.00;0.00;;;25.20;66.00;;;;;;4162670;28;20049;-66
2022/05/18 10:15:41;;;;;;;0.00;0.00;;;25.30;65.50;;;;;;4149147;28;20376;-67
2022/05/18 10:18:43;;;;;;;0.00;0.00;;;25.40;64.80;;;;;;4149155;28;20049;-67
2022/05/18 10:21:13;;;;;;;0.00;0.00;;;25.30;65.20;;;;;;4198659;28;20149;-67
2022/05/18 10:23:51;;;;;;;0.00;0.00;;;25.40;64.50;;;;;;4220973;28;20055;-66
2022/05/18 10:26:40;;;;;;;0.00;0.00;;;25.40;64.70;;;;;;4189871;28;20356;-67
2022/05/18 10:29:21;;;;;;;0.00;0.00;;;25.50;63.80;;;;;;4204120;28;20109;-66
2022/05/18 10:32:00;;;;;;;0.00;0.00;;;25.60;63.80;;;;;;4231761;28;20044;-67
2022/05/18 10:34:28;;;;;;;0.00;0.00;;;25.60;62.70;;;;;;4217374;28;20052;-66
2022/05/18 10:36:56;;;;;;;0.00;0.00;;;25.50;63.80;;;;;;4189281;28;20049;-63
2022/05/18 10:39:41;;;;;;;0.00;0.00;;;25.50;63.30;;;;;;4217503;28;20396;-66
2022/05/18 10:42:42;;;;;;;0.00;0.00;;;25.60;63.50;;;;;;4217322;28;20063;-67
2022/05/18 10:45:27;;;;;;;0.00;0.00;;;25.70;62.80;;;;;;4203682;28;20099;-66
2022/05/18 10:47:53;;;;;;;0.00;0.00;;;25.70;63.30;;;;;;4217321;28;20048;-66
2022/05/18 10:50:34;;;;;;;0.00;0.00;;;25.60;63.80;;;;;;4203182;28;20479;-66
2022/05/18 10:53:13;;;;;;;0.00;0.00;;;25.80;63.70;;;;;;4217627;28;20052;-65
2022/05/18 10:55:40;;;;;;;0.00;0.00;;;25.90;63.60;;;;;;4130089;28;20379;-66
2022/05/18 10:58:07;;;;;;;0.00;0.00;;;26.10;63.30;;;;;;4116324;28;20047;-66
2022/05/18 11:00:50;;;;;;;0.00;0.00;;;26.10;63.70;;;;;;4116648;28;20438;-65
2022/05/18 11:03:21;;;;;;;0.00;0.00;;;26.20;64.00;;;;;;4129624;28;20407;-66
2022/05/18 11:05:52;;;;;;;0.00;0.00;;;26.00;64.30;;;;;;4116504;28;20493;-66
2022/05/18 11:08:18;;;;;;;0.00;0.00;;;26.10;64.40;;;;;;4116508;28;20056;-65
2022/05/18 11:10:54;;;;;;;0.00;0.00;;;25.90;63.50;;;;;;4130001;28;20043;-66
2022/05/18 11:13:40;;;;;;;0.00;0.00;;;26.00;64.50;;;;;;4129772;28;20404;-66
2022/05/18 11:16:17;;;;;;;0.00;0.00;;;26.20;64.60;;;;;;4130075;28;20485;-65
2022/05/18 11:19:24;;;;;;;0.00;0.00;;;26.30;64.80;;;;;;4116347;28;20062;-66
2022/05/18 11:22:22;;;;;;;0.00;0.00;;;26.40;65.00;;;;;;4129602;28;20085;-66
2022/05/18 11:25:10;;;;;;;0.00;0.00;;;26.20;63.50;;;;;;4129761;28;20538;-66
2022/05/18 11:28:44;;;;;;;0.00;0.00;;;26.20;63.90;;;;;;4129785;28;20108;-67
2022/05/18 11:31:33;;;;;;;0.00;0.00;;;26.20;63.80;;;;;;4114396;28;20062;-67
2022/05/18 11:34:24;;;;;;;0.00;0.00;;;26.10;64.00;;;;;;4116441;28;20501;-66
2022/05/18 11:37:22;;;;;;;0.00;0.00;;;26.20;64.00;;;;;;4129775;28;20498;-65
2022/05/18 11:40:12;;;;;;;0.00;0.00;;;26.20;64.10;;;;;;4116481;28;20057;-65
2022/05/18 11:43:25;;;;;;;0.00;0.00;;;26.20;64.60;;;;;;4116820;28;20058;-66
2022/05/18 11:45:59;;;;;;;0.00;0.00;;;26.40;64.50;;;;;;4112915;28;20130;-65
2022/05/18 11:48:45;;;;;;;0.00;0.00;;;26.70;64.60;;;;;;4132661;28;20400;-66
2022/05/18 11:51:30;;;;;;;0.00;0.00;;;26.80;63.30;;;;;;4132543;28;20055;-65
2022/05/18 11:54:30;;;;;;;0.00;0.00;;;26.80;63.40;;;;;;4140029;28;20087;-66
2022/05/18 11:57:34;;;;;;;0.00;0.00;;;26.80;62.40;;;;;;4137852;28;20089;-65
2022/05/18 12:00:03;;;;;;;0.00;0.00;;;26.70;61.60;;;;;;4138203;28;20378;-66
2022/05/18 12:03:00;;;;;;;0.00;0.00;;;26.70;62.70;;;;;;4138808;28;20054;-65
2022/05/18 12:05:51;;;;;;;0.00;0.00;;;26.90;61.90;;;;;;4151074;28;20053;-66
2022/05/18 12:08:27;;;;;;;0.00;0.00;;;26.80;61.60;;;;;;4150976;28;20045;-66
2022/05/18 12:10:57;;;;;;;0.00;0.00;;;26.80;62.80;;;;;;4138824;28;20054;-65
2022/05/18 12:13:39;;;;;;;0.00;0.00;;;26.90;62.30;;;;;;4123908;28;20046;-65
2022/05/18 12:16:17;;;;;;;0.00;0.00;;;27.00;62.20;;;;;;4178165;28;20082;-65
2022/05/18 12:18:46;;;;;;;0.00;0.00;;;27.10;62.00;;;;;;4150968;28;20056;-67
2022/05/18 12:21:40;;;;;;;0.00;0.00;;;27.20;60.60;;;;;;4164632;28;20114;-65
2022/05/18 12:24:05;;;;;;;0.00;0.00;;;27.30;60.70;;;;;;4150774;28;20121;-67
2022/05/18 12:26:31;;;;;;;0.00;0.00;;;27.40;60.00;;;;;;4150621;28;20119;-65
2022/05/18 12:28:54;;;;;;;0.00;0.00;;;27.40;59.70;;;;;;4164448;28;20053;-66
2022/05/18 12:31:19;;;;;;;0.00;0.00;;;27.50;59.50;;;;;;4150478;28;20046;-66
2022/05/18 12:33:56;;;;;;;0.00;0.00;;;27.50;58.20;;;;;;4150424;28;20046;-66
2022/05/18 12:36:44;;;;;;;0.00;0.00;;;27.60;57.30;;;;;;4137160;28;20054;-65
2022/05/18 12:39:14;;;;;;;0.00;0.00;;;27.60;56.90;;;;;;4164207;28;20050;-65
2022/05/18 12:41:46;;;;;;;0.00;0.00;;;27.60;56.90;;;;;;4150276;28;20046;-66
2022/05/18 12:44:25;;;;;;;0.00;0.00;;;27.60;56.90;;;;;;4150656;28;20075;-66
2022/05/18 12:47:05;;;;;;;0.00;0.00;;;27.60;55.80;;;;;;4136937;28;20058;-65
2022/05/18 12:49:37;;;;;;;0.00;0.00;;;27.50;56.50;;;;;;4123174;28;20112;-65
2022/05/18 12:52:12;;;;;;;0.00;0.00;;;27.60;56.40;;;;;;4131649;28;20081;-65
2022/05/18 12:54:44;;;;;;;0.00;0.00;;;27.60;56.80;;;;;;4159048;28;20049;-65
2022/05/18 12:57:07;;;;;;;0.00;0.00;;;27.70;57.80;;;;;;4199316;28;20458;-65
2022/05/18 13:00:02;;;;;;;0.00;0.00;;;27.70;58.50;;;;;;4213887;28;20039;-65
2022/05/18 13:03:08;;;;;;;0.00;0.00;;;27.90;58.60;;;;;;4199694;28;20174;-65
2022/05/18 13:05:56;;;;;;;0.00;0.00;;;28.00;57.50;;;;;;4138134;28;20089;-65
2022/05/18 13:08:24;;;;;;;0.00;0.00;;;28.00;57.30;;;;;;4179562;28;20549;-66
2022/05/18 13:11:16;;;;;;;0.00;0.00;;;28.10;57.20;;;;;;4187902;28;20076;-65
2022/05/18 13:14:02;;;;;;;0.00;0.00;;;28.20;56.20;;;;;;4185915;28;20049;-66
2022/05/18 13:16:39;;;;;;;0.00;0.00;;;28.10;54.20;;;;;;4199526;28;20478;-66
2022/05/18 13:19:01;;;;;;;0.00;0.00;;;27.80;53.40;;;;;;4213574;28;20490;-65
2022/05/18 13:21:29;;;;;;;0.00;0.00;;;27.60;51.60;;;;;;4185879;28;20052;-64